sensor_id;sensor_type;location;lat;lon;timestamp;pressure;altitude;pressure_sealevel;temperature;humidity
76331;BME280;65148;51.912;15.570;2023-04-15T00:02:17;100304.97;;;12.10;100.00
76331;BME280;65148;51.912;15.570;2023-04-15T00:17:49;100301.47;;;11.82;100.00
76331;BME280;65148;51.912;15.570;2023-04-15T00:32:51;100293.77;;;11.70;100.00
76331;BME280;65148;51.912;15.570;2023-04-15T00:47:53;100299.55;;;11.82;100.00
76331;BME280;65148;51.912;15.570;2023-04-15T01:02:55;100301.68;;;11.85;100.00
76331;BME280;65148;51.912;15.570;2023-04-15T01:18:12;100307.23;;;11.66;100.00
76331;BME280;65148;51.912;15.570;2023-04-15T01:33:15;100308.73;;;11.73;100.00
76331;BME280;65148;51.912;15.570;2023-04-15T01:48:17;100314.77;;;11.69;100.00
76331;BME280;65148;51.912;15.570;2023-04-15T02:03:18;100320.55;;;11.68;100.00
76331;BME280;65148;51.912;15.570;2023-04-15T02:18:36;100324.89;;;11.42;100.00
76331;BME280;65148;51.912;15.570;2023-04-15T02:33:37;100311.55;;;11.26;100.00
76331;BME280;65148;51.912;15.570;2023-04-15T02:48:38;100306.57;;;11.01;100.00
76331;BME280;65148;51.912;15.570;2023-04-15T03:03:39;100317.88;;;11.08;100.00
76331;BME280;65148;51.912;15.570;2023-04-15T03:19:01;100303.48;;;10.75;100.00
76331;BME280;65148;51.912;15.570;2023-04-15T03:34:02;100311.05;;;10.78;100.00
76331;BME280;65148;51.912;15.570;2023-04-15T03:49:05;100321.21;;;10.73;100.00
76331;BME280;65148;51.912;15.570;2023-04-15T04:04:06;100316.05;;;10.71;100.00
76331;BME280;65148;51.912;15.570;2023-04-15T04:19:25;100305.04;;;10.63;100.00
76331;BME280;65148;51.912;15.570;2023-04-15T04:34:27;100316.15;;;10.66;100.00
76331;BME280;65148;51.912;15.570;2023-04-15T04:49:28;100339.91;;;10.60;100.00
76331;BME280;65148;51.912;15.570;2023-04-15T05:04:29;100351.77;;;10.51;100.00
76331;BME280;65148;51.912;15.570;2023-04-15T05:19:51;100351.20;;;10.35;100.00
76331;BME280;65148;51.912;15.570;2023-04-15T05:34:53;100358.55;;;10.35;100.00
76331;BME280;65148;51.912;15.570;2023-04-15T05:49:54;100374.50;;;10.41;100.00
76331;BME280;65148;51.912;15.570;2023-04-15T06:04:56;100378.41;;;10.35;100.00
76331;BME280;65148;51.912;15.570;2023-04-15T06:20:17;100378.61;;;10.39;100.00
76331;BME280;65148;51.912;15.570;2023-04-15T06:35:19;100392.88;;;10.49;100.00
76331;BME280;65148;51.912;15.570;2023-04-15T06:50:20;100408.04;;;10.74;100.00
76331;BME280;65148;51.912;15.570;2023-04-15T07:05:21;100422.09;;;11.00;100.00
76331;BME280;65148;51.912;15.570;2023-04-15T07:20:43;100438.27;;;11.10;100.00
76331;BME280;65148;51.912;15.570;2023-04-15T07:35:44;100444.00;;;11.41;100.00
76331;BME280;65148;51.912;15.570;2023-04-15T07:50:46;100448.51;;;11.64;100.00
76331;BME280;65148;51.912;15.570;2023-04-15T08:05:47;100456.85;;;11.87;100.00
76331;BME280;65148;51.912;15.570;2023-04-15T08:21:09;100473.10;;;11.92;100.00
76331;BME280;65148;51.912;15.570;2023-04-15T08:36:10;100486.06;;;12.27;100.00
76331;BME280;65148;51.912;15.570;2023-04-15T08:51:15;100496.88;;;12.96;100.00
76331;BME280;65148;51.912;15.570;2023-04-15T09:06:17;100513.15;;;13.14;100.00
76331;BME280;65148;51.912;15.570;2023-04-15T09:21:34;100519.15;;;12.89;100.00
76331;BME280;65148;51.912;15.570;2023-04-15T09:51:59;100547.89;;;13.36;100.00
76331;BME280;65148;51.912;15.570;2023-04-15T10:07:15;100555.58;;;14.01;100.00
76331;BME280;65148;51.912;15.570;2023-04-15T10:22:22;100574.15;;;13.60;100.00
76331;BME280;65148;51.912;15.570;2023-04-15T10:37:36;100584.07;;;13.56;100.00
76331;BME280;65148;51.912;15.570;2023-04-15T10:52:55;100585.69;;;14.01;100.00
76331;BME280;65148;51.912;15.570;2023-04-15T11:07:57;100601.96;;;14.06;100.00
76331;BME280;65148;51.912;15.570;2023-04-15T11:22:59;100603.97;;;14.14;100.00
76331;BME280;65148;51.912;15.570;2023-04-15T11:38:04;100613.23;;;14.27;100.00
76331;BME280;65148;51.912;15.570;2023-04-15T11:53:20;100617.62;;;14.68;100.00
76331;BME280;65148;51.912;15.570;2023-04-15T12:08:23;100642.52;;;14.88;100.00
76331;BME280;65148;51.912;15.570;2023-04-15T12:23:24;100660.34;;;14.69;100.00
76331;BME280;65148;51.912;15.570;2023-04-15T12:38:25;100677.49;;;14.52;100.00
76331;BME280;65148;51.912;15.570;2023-04-15T12:53:43;100701.58;;;14.19;100.00
76331;BME280;65148;51.912;15.570;2023-04-15T13:08:45;100717.44;;;14.31;100.00
76331;BME280;65148;51.912;15.570;2023-04-15T13:23:47;100720.19;;;14.53;100.00
76331;BME280;65148;51.912;15.570;2023-04-15T13:38:50;100725.82;;;14.79;91.48
76331;BME280;65148;51.912;15.570;2023-04-15T13:54:07;100730.45;;;15.01;72.53
76331;BME280;65148;51.912;15.570;2023-04-15T14:09:09;100741.04;;;14.93;69.31
76331;BME280;65148;51.912;15.570;2023-04-15T14:24:10;100768.94;;;14.65;67.47
76331;BME280;65148;51.912;15.570;2023-04-15T14:39:12;100788.67;;;14.75;65.08
76331;BME280;65148;51.912;15.570;2023-04-15T14:54:30;100799.70;;;14.61;65.54
76331;BME280;65148;51.912;15.570;2023-04-15T15:09:31;100806.48;;;14.64;63.99
76331;BME280;65148;51.912;15.570;2023-04-15T15:24:33;100819.94;;;14.52;64.45
76331;BME280;65148;51.912;15.570;2023-04-15T15:39:34;100839.66;;;14.40;65.36
76331;BME280;65148;51.912;15.570;2023-04-15T15:54:54;100849.93;;;14.21;66.92
76331;BME280;65148;51.912;15.570;2023-04-15T16:09:55;100865.24;;;14.22;68.01
76331;BME280;65148;51.912;15.570;2023-04-15T16:24:57;100875.74;;;13.93;82.69
76331;BME280;65148;51.912;15.570;2023-04-15T16:39:59;100887.58;;;13.74;85.82
76331;BME280;65148;51.912;15.570;2023-04-15T16:55:18;100907.91;;;13.27;92.54
76331;BME280;65148;51.912;15.570;2023-04-15T17:10:20;100927.25;;;13.12;91.97
76331;BME280;65148;51.912;15.570;2023-04-15T17:25:22;100955.35;;;12.80;93.68
76331;BME280;65148;51.912;15.570;2023-04-15T17:40:23;100970.13;;;12.60;93.27
76331;BME280;65148;51.912;15.570;2023-04-15T17:55:43;100979.95;;;12.19;94.39
76331;BME280;65148;51.912;15.570;2023-04-15T18:10:44;101011.76;;;12.28;93.99
76331;BME280;65148;51.912;15.570;2023-04-15T18:25:45;101028.26;;;12.18;96.05
76331;BME280;65148;51.912;15.570;2023-04-15T18:40:46;101055.38;;;12.10;97.54
76331;BME280;65148;51.912;15.570;2023-04-15T18:56:07;101065.24;;;11.71;100.00
76331;BME280;65148;51.912;15.570;2023-04-15T19:11:09;101093.12;;;11.63;100.00
76331;BME280;65148;51.912;15.570;2023-04-15T19:26:11;101117.54;;;11.45;100.00
76331;BME280;65148;51.912;15.570;2023-04-15T19:41:12;101120.02;;;11.36;100.00
76331;BME280;65148;51.912;15.570;2023-04-15T19:56:33;101126.45;;;11.11;100.00
76331;BME280;65148;51.912;15.570;2023-04-15T20:11:34;101140.02;;;11.21;100.00
76331;BME280;65148;51.912;15.570;2023-04-15T20:26:35;101160.73;;;11.22;100.00
76331;BME280;65148;51.912;15.570;2023-04-15T20:45:51;101167.92;;;11.03;100.00
76331;BME280;65148;51.912;15.570;2023-04-15T21:00:53;101175.59;;;10.91;100.00
76331;BME280;65148;51.912;15.570;2023-04-15T21:15:55;101174.54;;;10.72;100.00
76331;BME280;65148;51.912;15.570;2023-04-15T21:31:19;101198.82;;;10.58;100.00
76331;BME280;65148;51.912;15.570;2023-04-15T21:46:21;101209.72;;;10.43;100.00
76331;BME280;65148;51.912;15.570;2023-04-15T22:01:22;101211.92;;;10.36;100.00
76331;BME280;65148;51.912;15.570;2023-04-15T22:16:27;101234.50;;;10.26;100.00
76331;BME280;65148;51.912;15.570;2023-04-15T22:31:43;101251.06;;;10.14;100.00
76331;BME280;65148;51.912;15.570;2023-04-15T22:46:44;101278.25;;;10.09;100.00
76331;BME280;65148;51.912;15.570;2023-04-15T23:01:45;101289.97;;;10.15;100.00
76331;BME280;65148;51.912;15.570;2023-04-15T23:16:46;101295.95;;;10.12;100.00
76331;BME280;65148;51.912;15.570;2023-04-15T23:32:09;101290.47;;;9.92;100.00
76331;BME280;65148;51.912;15.570;2023-04-15T23:47:10;101300.23;;;9.87;100.00
